Time;durP1;ratioP1;P1;durP2;ratioP2;P2;SDS_P1;SDS_P2;PMS_P1;PMS_P2;Temp;Humidity;BMP_temperature;BMP_pressure;BME280_temperature;BME280_humidity;BME280_pressure;Samples;Min_cycle;Max_cycle;Signal;HPM_P1;HPM_P2
2023/11/27 00:00:25;;;;;;;0.60;0.40;;;0.80;99.90;;;;;;5031363;28;20646;-60
2023/11/27 00:02:53;;;;;;;0.40;0.40;;;0.70;99.90;;;;;;5014023;28;20649;-59
2023/11/27 00:05:20;;;;;;;0.30;0.30;;;0.70;99.90;;;;;;5020450;28;20287;-60
2023/11/27 00:07:47;;;;;;;0.30;0.30;;;0.60;99.90;;;;;;5026049;28;20282;-60
2023/11/27 00:10:14;;;;;;;0.30;0.30;;;0.70;99.90;;;;;;5021829;28;20270;-60
2023/11/27 00:12:42;;;;;;;1.47;0.40;;;0.80;99.90;;;;;;5021276;28;20274;-60
2023/11/27 00:15:10;;;;;;;0.33;0.30;;;0.80;99.90;;;;;;5014093;28;20204;-60
2023/11/27 00:17:37;;;;;;;1.30;0.20;;;0.90;99.90;;;;;;5025347;28;20255;-59
2023/11/27 00:20:04;;;;;;;0.57;0.20;;;0.90;99.90;;;;;;5025279;28;20200;-60
2023/11/27 00:22:31;;;;;;;0.37;0.37;;;0.80;99.90;;;;;;5028719;28;20276;-60
2023/11/27 00:24:58;;;;;;;0.67;0.40;;;0.80;99.90;;;;;;5023916;28;20263;-60
2023/11/27 00:27:25;;;;;;;1.47;0.30;;;0.90;99.90;;;;;;5028300;28;20219;-59
2023/11/27 00:29:53;;;;;;;0.23;0.20;;;0.80;99.90;;;;;;5013286;28;20224;-60
2023/11/27 00:32:20;;;;;;;0.30;0.30;;;0.80;99.90;;;;;;5025894;28;20273;-59
2023/11/27 00:34:47;;;;;;;0.70;0.40;;;0.90;99.90;;;;;;5030818;28;20319;-60
2023/11/27 00:37:15;;;;;;;0.40;0.40;;;0.90;99.90;;;;;;5031680;28;20200;-60
2023/11/27 00:39:42;;;;;;;0.40;0.30;;;0.90;99.90;;;;;;5013315;28;20198;-59
2023/11/27 00:42:08;;;;;;;0.33;0.33;;;0.90;99.90;;;;;;5012793;28;20719;-59
2023/11/27 00:44:35;;;;;;;0.67;0.30;;;1.00;99.90;;;;;;5024297;28;20200;-60
2023/11/27 00:47:04;;;;;;;0.30;0.30;;;1.10;99.90;;;;;;5027826;28;20264;-59
2023/11/27 00:49:31;;;;;;;0.30;0.30;;;1.20;99.90;;;;;;5021626;28;20293;-60
2023/11/27 00:51:58;;;;;;;0.33;0.20;;;1.20;99.90;;;;;;5012798;28;20305;-59
2023/11/27 00:54:25;;;;;;;0.20;0.20;;;1.20;99.90;;;;;;5013192;28;20214;-59
2023/11/27 00:56:52;;;;;;;0.20;0.20;;;1.20;99.90;;;;;;5024873;28;20254;-59
2023/11/27 00:59:19;;;;;;;0.20;0.20;;;1.20;99.90;;;;;;5054550;23;20231;-58
2023/11/27 01:01:46;;;;;;;2.47;0.60;;;1.20;99.90;;;;;;5043289;28;20655;-58
2023/11/27 01:04:14;;;;;;;0.50;0.20;;;1.30;99.90;;;;;;5040219;28;20204;-59
2023/11/27 01:06:42;;;;;;;0.30;0.30;;;1.30;99.90;;;;;;5031506;28;20212;-58
2023/11/27 01:09:09;;;;;;;0.20;0.20;;;1.20;99.90;;;;;;5031666;28;20932;-58
2023/11/27 01:11:39;;;;;;;0.10;0.10;;;1.30;99.90;;;;;;5035859;28;20227;-58
2023/11/27 01:14:06;;;;;;;0.30;0.30;;;1.30;99.90;;;;;;5031753;28;20246;-59
2023/11/27 01:16:33;;;;;;;0.20;0.20;;;1.30;99.90;;;;;;5031380;28;20766;-58
2023/11/27 01:19:00;;;;;;;0.50;0.50;;;1.30;99.90;;;;;;5041112;28;20205;-59
2023/11/27 01:21:29;;;;;;;1.13;0.17;;;1.40;99.90;;;;;;5032641;28;20208;-58
2023/11/27 01:23:56;;;;;;;0.53;0.10;;;1.40;99.90;;;;;;5031539;28;20207;-58
2023/11/27 01:26:24;;;;;;;0.40;0.30;;;1.40;99.90;;;;;;5037108;28;20207;-58
2023/11/27 01:28:50;;;;;;;0.20;0.20;;;1.40;99.90;;;;;;5045824;28;20289;-58
2023/11/27 01:31:18;;;;;;;0.40;0.10;;;1.40;99.90;;;;;;5034082;28;20728;-58
2023/11/27 01:33:45;;;;;;;1.43;0.20;;;1.40;99.90;;;;;;5036146;28;20191;-58
2023/11/27 01:36:12;;;;;;;0.10;0.10;;;1.40;99.90;;;;;;5041526;28;20593;-58
2023/11/27 01:38:40;;;;;;;0.20;0.20;;;1.40;99.90;;;;;;5041005;28;20337;-58
2023/11/27 01:41:08;;;;;;;0.17;0.17;;;1.50;99.90;;;;;;5038679;28;20227;-58
2023/11/27 01:43:35;;;;;;;0.20;0.10;;;1.50;99.90;;;;;;5050291;28;20586;-58
2023/11/27 01:46:21;;;;;;;0.27;0.20;;;1.60;99.90;;;;;;5049419;28;20655;-58
2023/11/27 01:48:48;;;;;;;0.20;0.10;;;1.50;99.90;;;;;;5043528;28;20687;-58
2023/11/27 01:51:16;;;;;;;0.23;0.10;;;1.60;99.90;;;;;;5044001;28;20666;-58
2023/11/27 01:53:46;;;;;;;0.20;0.20;;;1.60;99.90;;;;;;5050763;28;20199;-58
2023/11/27 01:56:14;;;;;;;0.10;0.10;;;1.70;99.90;;;;;;5049426;28;20205;-58
2023/11/27 01:58:41;;;;;;;2.03;0.30;;;1.70;99.90;;;;;;5038116;28;20199;-58
2023/11/27 02:01:08;;;;;;;0.10;0.10;;;1.60;99.90;;;;;;5030786;28;20224;-58
2023/11/27 02:03:36;;;;;;;0.83;0.30;;;1.60;99.90;;;;;;5031050;28;20203;-58
2023/11/27 02:06:03;;;;;;;0.30;0.30;;;1.70;99.90;;;;;;5030975;28;20291;-58
2023/11/27 02:08:31;;;;;;;0.30;0.27;;;1.60;99.90;;;;;;5035551;28;20614;-58
2023/11/27 02:10:59;;;;;;;0.53;0.30;;;1.60;99.90;;;;;;5039402;28;20630;-58
2023/11/27 02:13:26;;;;;;;0.10;0.10;;;1.60;99.90;;;;;;5036810;28;20252;-58
2023/11/27 02:15:54;;;;;;;0.40;0.20;;;1.60;99.90;;;;;;5042383;28;20198;-58
2023/11/27 02:18:21;;;;;;;0.13;0.13;;;1.70;99.90;;;;;;5044533;28;20253;-58
2023/11/27 02:20:48;;;;;;;0.30;0.20;;;1.70;99.90;;;;;;5042528;28;20217;-58
2023/11/27 02:23:19;;;;;;;0.30;0.20;;;1.60;99.90;;;;;;5040975;28;20747;-58
2023/11/27 02:25:46;;;;;;;0.30;0.30;;;1.60;99.90;;;;;;5037578;28;20364;-58
2023/11/27 02:28:13;;;;;;;0.60;0.53;;;1.60;99.90;;;;;;5043974;28;20202;-58
2023/11/27 02:30:40;;;;;;;0.23;0.20;;;1.70;99.90;;;;;;5038891;28;20293;-59
2023/11/27 02:33:07;;;;;;;0.90;0.30;;;1.70;99.90;;;;;;5033532;28;20203;-58
2023/11/27 02:35:34;;;;;;;2.07;0.53;;;1.70;99.90;;;;;;5037095;28;20200;-58
2023/11/27 02:38:02;;;;;;;0.30;0.30;;;1.70;99.90;;;;;;5039300;28;20203;-58
2023/11/27 02:40:30;;;;;;;0.23;0.23;;;1.70;99.90;;;;;;5042099;28;20270;-58
2023/11/27 02:42:57;;;;;;;0.67;0.30;;;1.60;99.90;;;;;;5050724;28;20196;-58
2023/11/27 02:45:24;;;;;;;2.73;0.37;;;1.70;99.90;;;;;;5050812;28;20207;-58
2023/11/27 02:47:52;;;;;;;0.17;0.10;;;1.60;99.90;;;;;;5048125;28;20245;-58
2023/11/27 02:50:19;;;;;;;0.27;0.27;;;1.60;99.90;;;;;;5040804;28;20255;-58
2023/11/27 02:52:46;;;;;;;2.47;0.40;;;1.60;99.90;;;;;;5039047;28;20287;-58
2023/11/27 02:55:13;;;;;;;0.37;0.23;;;1.70;99.90;;;;;;5038841;28;20203;-58
2023/11/27 02:57:41;;;;;;;0.50;0.30;;;1.70;99.90;;;;;;5048597;28;20265;-58
2023/11/27 03:00:12;;;;;;;0.23;0.17;;;1.70;99.90;;;;;;5045058;28;20337;-58
2023/11/27 03:02:39;;;;;;;2.33;0.20;;;1.80;99.90;;;;;;5043417;28;20203;-58
2023/11/27 03:05:08;;;;;;;0.13;0.13;;;1.70;99.90;;;;;;5047415;28;20203;-58
2023/11/27 03:07:35;;;;;;;0.20;0.10;;;1.70;99.90;;;;;;5049879;28;20195;-58
2023/11/27 03:10:02;;;;;;;1.93;0.20;;;1.70;99.90;;;;;;5048367;28;20227;-58
2023/11/27 03:12:29;;;;;;;4.23;0.77;;;1.70;99.90;;;;;;5036240;28;20203;-58
2023/11/27 03:14:58;;;;;;;0.37;0.10;;;1.60;99.90;;;;;;5045121;28;20206;-58
2023/11/27 03:17:25;;;;;;;0.83;0.30;;;1.60;99.90;;;;;;5035035;28;20213;-58
2023/11/27 03:19:53;;;;;;;0.97;0.00;;;1.50;99.90;;;;;;5050557;28;20220;-58
2023/11/27 03:22:20;;;;;;;1.87;0.23;;;1.50;99.90;;;;;;5036311;28;20677;-58
2023/11/27 03:24:47;;;;;;;0.20;0.17;;;1.50;99.90;;;;;;5045158;28;20294;-58
2023/11/27 03:27:14;;;;;;;0.93;0.27;;;1.50;99.90;;;;;;5044575;28;20234;-58
2023/11/27 03:29:41;;;;;;;0.23;0.20;;;1.50;99.90;;;;;;5047487;28;20732;-58
2023/11/27 03:32:09;;;;;;;0.77;0.30;;;1.50;99.90;;;;;;5033582;28;20326;-58
2023/11/27 03:34:37;;;;;;;0.20;0.20;;;1.50;99.90;;;;;;5033308;28;20250;-58
2023/11/27 03:37:04;;;;;;;0.10;0.10;;;1.50;99.90;;;;;;5051464;28;20249;-58
2023/11/27 03:39:31;;;;;;;0.20;0.20;;;1.50;99.90;;;;;;5053044;28;20735;-59
2023/11/27 03:41:58;;;;;;;0.47;0.17;;;1.50;99.90;;;;;;5051207;28;20213;-58
2023/11/27 03:44:24;;;;;;;0.47;0.10;;;1.60;99.90;;;;;;5038956;28;20252;-58
2023/11/27 03:46:51;;;;;;;0.60;0.20;;;1.60;99.90;;;;;;5045407;28;20204;-58
2023/11/27 03:49:20;;;;;;;0.20;0.20;;;1.60;99.90;;;;;;5049578;28;20300;-58
2023/11/27 03:51:47;;;;;;;2.50;0.20;;;1.60;99.90;;;;;;5046125;28;20570;-58
2023/11/27 03:54:14;;;;;;;0.20;0.10;;;1.60;99.90;;;;;;5044853;28;20210;-58
2023/11/27 03:56:41;;;;;;;2.53;0.10;;;1.60;99.90;;;;;;5051117;28;20200;-58
2023/11/27 03:59:09;;;;;;;0.77;0.20;;;1.60;99.90;;;;;;5039723;28;20726;-58
2023/11/27 04:01:36;;;;;;;0.30;0.30;;;1.60;99.90;;;;;;5046825;28;20207;-58
2023/11/27 04:04:03;;;;;;;0.10;0.10;;;1.60;99.90;;;;;;5046984;28;20603;-58
2023/11/27 04:06:32;;;;;;;0.00;0.00;;;1.60;99.90;;;;;;5032674;28;20599;-58
2023/11/27 04:08:59;;;;;;;0.30;0.17;;;1.60;99.90;;;;;;5034136;28;20204;-58
2023/11/27 04:11:27;;;;;;;0.10;0.10;;;1.60;99.90;;;;;;5051709;28;20226;-58
2023/11/27 04:13:55;;;;;;;1.60;0.10;;;1.50;99.90;;;;;;5048596;28;20211;-58
2023/11/27 04:16:22;;;;;;;1.30;0.10;;;1.50;99.90;;;;;;5043820;28;20295;-58
2023/11/27 04:18:49;;;;;;;0.10;0.10;;;1.60;99.90;;;;;;5040240;28;20572;-58
2023/11/27 04:21:17;;;;;;;0.10;0.10;;;1.50;99.90;;;;;;5039356;28;20663;-58
2023/11/27 04:23:47;;;;;;;1.33;0.10;;;1.40;99.90;;;;;;5042298;28;20294;-58
2023/11/27 04:26:14;;;;;;;1.17;0.10;;;1.40;99.90;;;;;;5045514;28;20257;-58
2023/11/27 04:28:41;;;;;;;1.07;0.10;;;1.30;99.90;;;;;;5043082;28;20264;-58
2023/11/27 04:31:09;;;;;;;0.07;0.00;;;1.30;99.90;;;;;;5036678;28;20270;-58
2023/11/27 04:33:36;;;;;;;0.20;0.10;;;1.30;99.90;;;;;;5043477;28;20283;-58
2023/11/27 04:36:04;;;;;;;1.50;0.10;;;1.20;99.90;;;;;;5042610;28;20215;-58
2023/11/27 04:38:31;;;;;;;0.00;0.00;;;1.30;99.90;;;;;;5048658;28;20281;-58
2023/11/27 04:40:59;;;;;;;3.23;0.20;;;1.20;99.90;;;;;;5044775;28;20274;-58
2023/11/27 04:43:28;;;;;;;3.20;0.20;;;1.20;99.90;;;;;;5048231;28;20316;-58
2023/11/27 04:45:55;;;;;;;0.83;0.20;;;1.20;99.90;;;;;;5039971;28;20250;-58
2023/11/27 04:48:22;;;;;;;2.27;0.57;;;1.20;99.90;;;;;;5041207;28;20213;-58
2023/11/27 04:50:49;;;;;;;0.10;0.10;;;1.10;99.90;;;;;;5043954;28;20218;-58
2023/11/27 04:53:16;;;;;;;1.20;0.30;;;1.10;99.90;;;;;;5043597;28;20201;-58
2023/11/27 04:55:42;;;;;;;0.20;0.20;;;1.10;99.90;;;;;;5044964;28;20200;-58
2023/11/27 04:58:11;;;;;;;0.30;0.30;;;1.10;99.90;;;;;;5047802;28;20278;-58
2023/11/27 05:00:38;;;;;;;0.73;0.40;;;1.10;99.90;;;;;;5046622;28;20659;-58
2023/11/27 05:03:05;;;;;;;0.50;0.30;;;1.10;99.90;;;;;;5043262;28;20199;-58
2023/11/27 05:05:31;;;;;;;0.20;0.20;;;1.20;99.90;;;;;;5041573;28;20198;-58
2023/11/27 05:07:58;;;;;;;2.13;0.30;;;1.20;99.90;;;;;;5034059;28;20207;-58
2023/11/27 05:10:28;;;;;;;1.33;0.20;;;1.10;99.90;;;;;;5040700;28;20248;-59
2023/11/27 05:12:54;;;;;;;0.30;0.30;;;1.10;99.90;;;;;;5031615;28;20639;-58
2023/11/27 05:15:23;;;;;;;0.30;0.10;;;1.10;99.90;;;;;;5031598;28;20209;-58
2023/11/27 05:17:51;;;;;;;0.63;0.50;;;1.20;99.90;;;;;;5037600;28;20276;-58
2023/11/27 05:20:18;;;;;;;0.20;0.20;;;1.20;99.90;;;;;;5047877;28;20210;-58
2023/11/27 05:22:45;;;;;;;0.73;0.20;;;1.10;99.90;;;;;;5041738;28;20215;-58
2023/11/27 05:25:12;;;;;;;0.97;0.20;;;1.00;99.90;;;;;;5041369;28;20676;-58
2023/11/27 05:27:40;;;;;;;0.23;0.20;;;1.00;99.90;;;;;;5047163;28;20273;-58
2023/11/27 05:30:08;;;;;;;0.20;0.20;;;0.90;99.90;;;;;;5038184;28;20666;-58
2023/11/27 05:32:37;;;;;;;0.60;0.60;;;0.90;99.90;;;;;;5040606;28;20218;-58
2023/11/27 05:35:04;;;;;;;4.17;2.70;;;0.90;99.90;;;;;;5043825;28;20566;-58
2023/11/27 05:37:31;;;;;;;4.33;2.20;;;0.90;99.90;;;;;;5042356;28;20207;-58
2023/11/27 05:39:59;;;;;;;3.87;1.70;;;0.90;99.90;;;;;;5043240;28;20607;-58
2023/11/27 05:42:27;;;;;;;0.60;0.60;;;0.90;99.90;;;;;;5039049;28;20213;-58
2023/11/27 05:44:59;;;;;;;1.40;0.30;;;0.90;99.90;;;;;;5039589;28;20468;-58
2023/11/27 05:47:26;;;;;;;0.40;0.30;;;1.00;99.90;;;;;;5042454;28;20739;-58
2023/11/27 05:49:54;;;;;;;1.63;0.10;;;1.00;99.90;;;;;;5034166;28;20225;-58
2023/11/27 05:52:21;;;;;;;0.47;0.23;;;0.90;99.90;;;;;;5045534;28;20266;-59
2023/11/27 05:54:48;;;;;;;0.40;0.40;;;0.90;99.90;;;;;;5044949;28;20288;-59
2023/11/27 05:57:15;;;;;;;0.53;0.20;;;0.80;99.90;;;;;;5039048;28;20271;-59
2023/11/27 05:59:42;;;;;;;0.77;0.30;;;0.80;99.90;;;;;;5037059;28;22223;-59
2023/11/27 06:02:09;;;;;;;0.40;0.20;;;0.80;99.90;;;;;;5044311;28;20197;-59
2023/11/27 06:04:36;;;;;;;1.90;0.30;;;0.90;99.90;;;;;;5038477;28;20220;-58
2023/11/27 06:07:05;;;;;;;0.30;0.20;;;0.90;99.90;;;;;;5037384;28;20668;-59
2023/11/27 06:09:31;;;;;;;0.57;0.30;;;0.90;99.90;;;;;;5033839;28;20306;-58
2023/11/27 06:11:58;;;;;;;0.40;0.30;;;0.90;99.90;;;;;;5046238;28;20287;-61
2023/11/27 06:14:25;;;;;;;0.20;0.20;;;0.80;99.90;;;;;;5042015;28;20236;-60
2023/11/27 06:16:52;;;;;;;0.83;0.40;;;0.80;99.90;;;;;;5042342;28;20207;-60
2023/11/27 06:19:19;;;;;;;0.33;0.30;;;0.80;99.90;;;;;;5035357;28;20771;-60
2023/11/27 06:21:47;;;;;;;0.53;0.40;;;0.80;99.90;;;;;;5037651;28;20574;-60
2023/11/27 06:24:15;;;;;;;0.30;0.30;;;0.70;99.90;;;;;;5043779;28;20290;-59
2023/11/27 06:26:42;;;;;;;0.20;0.20;;;0.70;99.90;;;;;;5044816;28;20202;-59
2023/11/27 06:29:09;;;;;;;0.30;0.30;;;0.70;99.90;;;;;;5037557;28;20215;-61
2023/11/27 06:31:40;;;;;;;3.33;0.40;;;0.70;99.90;;;;;;5034493;28;20277;-60
2023/11/27 06:34:07;;;;;;;0.50;0.43;;;0.60;99.90;;;;;;5038481;28;20205;-59
2023/11/27 06:36:37;;;;;;;4.37;0.80;;;0.60;99.90;;;;;;5045717;28;20204;-60
2023/11/27 06:39:04;;;;;;;0.93;0.50;;;0.60;99.90;;;;;;5043737;28;20205;-56
2023/11/27 06:41:33;;;;;;;1.30;0.40;;;0.70;99.90;;;;;;5042548;28;20203;-56
2023/11/27 06:44:00;;;;;;;0.73;0.53;;;0.60;99.90;;;;;;5050974;28;20249;-56
2023/11/27 06:46:28;;;;;;;1.40;0.63;;;0.60;99.90;;;;;;5044792;28;20203;-56
2023/11/27 06:48:55;;;;;;;0.83;0.67;;;0.60;99.90;;;;;;5050343;28;20722;-60
2023/11/27 06:51:22;;;;;;;3.87;0.63;;;0.50;99.90;;;;;;5045611;28;20285;-60
2023/11/27 06:53:50;;;;;;;0.97;0.40;;;0.50;99.90;;;;;;5046945;28;20202;-61
2023/11/27 06:56:17;;;;;;;0.57;0.57;;;0.50;99.90;;;;;;5044734;28;20202;-64
2023/11/27 06:58:45;;;;;;;0.70;0.40;;;0.50;99.90;;;;;;5042260;28;20206;-63
2023/11/27 07:01:12;;;;;;;2.80;0.60;;;0.60;99.90;;;;;;5042883;28;20247;-63
2023/11/27 07:03:39;;;;;;;1.80;1.00;;;0.60;99.90;;;;;;5038193;28;20356;-63
2023/11/27 07:06:07;;;;;;;1.37;0.40;;;0.60;99.90;;;;;;5050462;23;20233;-65
2023/11/27 07:08:34;;;;;;;0.47;0.47;;;0.70;99.90;;;;;;5026628;28;20652;-63
2023/11/27 07:11:02;;;;;;;0.57;0.57;;;0.70;99.90;;;;;;5026028;28;20277;-63
2023/11/27 07:13:29;;;;;;;1.43;0.50;;;0.70;99.90;;;;;;5024427;28;20204;-63
2023/11/27 07:15:57;;;;;;;1.13;0.57;;;0.80;99.90;;;;;;5020742;28;20227;-64
2023/11/27 07:18:24;;;;;;;0.83;0.80;;;0.80;99.90;;;;;;5024080;28;20198;-64
2023/11/27 07:20:51;;;;;;;5.30;0.70;;;0.90;99.90;;;;;;5030519;28;20273;-65
2023/11/27 07:23:18;;;;;;;4.73;0.80;;;0.90;99.90;;;;;;5033227;28;20705;-64
2023/11/27 07:25:46;;;;;;;1.30;0.77;;;1.00;99.90;;;;;;5023176;28;20217;-65
2023/11/27 07:28:13;;;;;;;0.97;0.90;;;1.10;99.90;;;;;;5022246;28;20206;-65
2023/11/27 07:30:39;;;;;;;1.63;1.10;;;1.20;99.90;;;;;;5014094;28;20697;-64
2023/11/27 07:33:08;;;;;;;1.30;1.17;;;1.30;99.90;;;;;;5021881;28;20199;-60
2023/11/27 07:35:35;;;;;;;3.40;1.13;;;1.40;99.90;;;;;;5022637;28;20224;-60
2023/11/27 07:38:02;;;;;;;7.73;2.07;;;1.50;99.90;;;;;;5019630;28;20256;-60
2023/11/27 07:40:29;;;;;;;3.33;2.17;;;1.60;99.90;;;;;;5021861;28;20287;-60
2023/11/27 07:42:56;;;;;;;4.00;3.60;;;1.80;99.90;;;;;;5024019;28;20279;-60
2023/11/27 07:45:24;;;;;;;4.47;3.23;;;1.90;99.90;;;;;;5017878;28;20232;-60
2023/11/27 07:47:51;;;;;;;4.17;2.60;;;2.00;99.90;;;;;;5023888;28;20200;-60
2023/11/27 07:50:20;;;;;;;2.63;2.07;;;2.20;99.90;;;;;;5023295;28;20296;-60
2023/11/27 07:52:48;;;;;;;1.77;1.53;;;2.30;99.90;;;;;;5023564;28;20220;-60
2023/11/27 07:55:15;;;;;;;1.67;1.57;;;2.40;99.90;;;;;;5022843;28;20607;-60
2023/11/27 07:57:43;;;;;;;4.23;1.30;;;2.50;99.90;;;;;;5021345;28;20219;-60
2023/11/27 08:00:14;;;;;;;2.07;1.40;;;2.60;99.90;;;;;;5021438;28;20209;-60
2023/11/27 08:02:42;;;;;;;3.63;1.77;;;2.60;99.90;;;;;;5020912;28;20256;-60
2023/11/27 08:05:10;;;;;;;3.10;1.83;;;2.70;99.90;;;;;;5022291;28;20228;-59
2023/11/27 08:07:38;;;;;;;2.37;1.10;;;2.80;99.90;;;;;;5021335;28;21344;-60
2023/11/27 08:10:08;;;;;;;3.07;2.77;;;2.90;99.90;;;;;;5022210;28;20309;-59
2023/11/27 08:12:36;;;;;;;3.90;2.60;;;2.90;99.90;;;;;;5017482;28;20709;-60
2023/11/27 08:15:05;;;;;;;4.03;1.60;;;3.10;99.90;;;;;;5018970;28;20228;-59
2023/11/27 08:17:33;;;;;;;3.27;1.90;;;3.10;99.90;;;;;;5024599;28;20888;-60
2023/11/27 08:20:04;;;;;;;2.40;1.20;;;3.10;99.90;;;;;;5022410;28;20204;-60
2023/11/27 08:22:31;;;;;;;5.07;1.30;;;3.20;99.90;;;;;;5018038;28;20748;-60
2023/11/27 08:25:00;;;;;;;2.13;1.00;;;3.60;99.90;;;;;;5020946;28;20232;-59
2023/11/27 08:27:27;;;;;;;2.03;1.17;;;3.40;99.90;;;;;;5021717;28;20203;-60
2023/11/27 08:29:54;;;;;;;1.17;1.17;;;3.50;99.90;;;;;;5022865;28;20200;-60
2023/11/27 08:32:21;;;;;;;1.97;1.17;;;3.40;99.90;;;;;;5028713;28;20220;-61
2023/11/27 08:34:48;;;;;;;1.67;1.07;;;3.40;99.90;;;;;;5025364;28;20986;-60
2023/11/27 08:37:16;;;;;;;1.30;1.20;;;3.40;99.90;;;;;;5021853;28;20239;-60
2023/11/27 08:39:43;;;;;;;3.70;1.00;;;3.40;99.90;;;;;;5019868;28;20204;-59
2023/11/27 08:42:11;;;;;;;5.03;1.50;;;3.40;99.90;;;;;;5020961;28;20731;-59
2023/11/27 08:44:39;;;;;;;1.23;1.07;;;3.30;99.90;;;;;;5024298;28;20685;-60
2023/11/27 08:47:06;;;;;;;2.53;1.20;;;3.20;99.90;;;;;;5020614;28;20295;-60
2023/11/27 08:49:33;;;;;;;2.20;0.80;;;3.10;99.90;;;;;;5021862;28;20208;-60
2023/11/27 08:52:00;;;;;;;0.97;0.93;;;3.10;99.90;;;;;;5022580;28;20220;-60
2023/11/27 08:54:32;;;;;;;3.43;1.50;;;3.00;99.90;;;;;;5021866;28;20288;-59
2023/11/27 08:56:59;;;;;;;2.20;0.90;;;3.10;99.90;;;;;;5019315;28;20212;-60
2023/11/27 08:59:27;;;;;;;1.60;1.03;;;3.10;99.90;;;;;;5020653;28;20245;-60
2023/11/27 09:01:54;;;;;;;2.70;1.10;;;3.20;99.90;;;;;;5021237;28;20248;-61
2023/11/27 09:04:22;;;;;;;2.20;1.47;;;3.30;99.90;;;;;;5021787;28;20196;-60
2023/11/27 09:06:50;;;;;;;2.83;1.30;;;3.20;99.90;;;;;;5021730;28;20243;-60
2023/11/27 09:09:17;;;;;;;0.70;0.70;;;3.20;99.90;;;;;;5021148;28;20211;-59
2023/11/27 09:11:44;;;;;;;1.20;0.50;;;3.30;99.90;;;;;;5022418;28;20589;-60
2023/11/27 09:14:11;;;;;;;2.67;0.60;;;3.30;99.90;;;;;;5020329;28;20291;-60
2023/11/27 09:16:41;;;;;;;1.73;0.60;;;3.30;99.90;;;;;;5018844;28;20224;-60
2023/11/27 09:19:10;;;;;;;0.87;0.37;;;3.30;99.90;;;;;;5020746;28;20209;-61
2023/11/27 09:21:37;;;;;;;1.27;0.57;;;3.30;99.90;;;;;;5018112;28;20204;-59
2023/11/27 09:24:05;;;;;;;2.83;0.60;;;3.30;99.90;;;;;;5014946;28;20198;-60
2023/11/27 09:26:32;;;;;;;0.60;0.60;;;3.30;99.90;;;;;;5020760;28;20298;-59
2023/11/27 09:28:59;;;;;;;0.73;0.40;;;3.40;99.90;;;;;;5021402;28;20312;-60
2023/11/27 09:31:27;;;;;;;0.93;0.60;;;3.60;99.90;;;;;;5023321;28;20254;-61
2023/11/27 09:33:55;;;;;;;0.67;0.53;;;3.70;99.90;;;;;;5020708;28;20258;-61
2023/11/27 09:36:22;;;;;;;0.90;0.50;;;3.70;99.90;;;;;;5019149;28;20564;-60
2023/11/27 09:38:49;;;;;;;3.80;0.70;;;3.80;99.90;;;;;;5019470;28;20235;-59
2023/11/27 09:41:16;;;;;;;1.60;0.50;;;4.00;99.90;;;;;;5020737;28;20197;-59
2023/11/27 09:43:43;;;;;;;0.40;0.40;;;4.00;99.90;;;;;;5020703;28;20660;-59
2023/11/27 09:46:18;;;;;;;0.87;0.87;;;4.00;99.90;;;;;;5019924;28;20274;-60
2023/11/27 09:48:47;;;;;;;2.57;0.93;;;4.10;99.90;;;;;;5020609;28;20759;-60
2023/11/27 09:51:16;;;;;;;1.03;0.53;;;4.20;99.90;;;;;;5019290;28;20205;-61
2023/11/27 09:53:47;;;;;;;1.50;0.43;;;4.20;99.90;;;;;;5019124;28;20278;-60
2023/11/27 09:56:15;;;;;;;0.83;0.63;;;4.40;99.90;;;;;;5021227;28;20229;-60
2023/11/27 09:58:42;;;;;;;1.43;0.73;;;4.30;99.90;;;;;;5020176;28;20204;-60
2023/11/27 10:01:12;;;;;;;1.77;0.60;;;4.40;99.90;;;;;;5021551;28;20199;-59
2023/11/27 10:03:40;;;;;;;1.50;0.50;;;4.50;99.90;;;;;;5018211;28;20227;-60
2023/11/27 10:06:08;;;;;;;0.50;0.50;;;4.50;99.90;;;;;;5017898;28;20232;-59
2023/11/27 10:08:37;;;;;;;3.83;0.80;;;4.50;99.90;;;;;;5019766;28;20344;-59
2023/11/27 10:11:04;;;;;;;3.83;0.73;;;4.60;99.90;;;;;;5020778;28;20197;-59
2023/11/27 10:13:34;;;;;;;2.17;0.50;;;4.50;99.90;;;;;;5020145;28;20310;-60
2023/11/27 10:16:04;;;;;;;1.77;0.77;;;4.60;99.90;;;;;;5021478;28;20237;-60
2023/11/27 10:18:32;;;;;;;1.53;0.60;;;4.70;99.90;;;;;;5020785;28;20724;-60
2023/11/27 10:20:59;;;;;;;1.13;0.70;;;4.80;99.90;;;;;;5020069;28;20296;-60
2023/11/27 10:23:28;;;;;;;1.10;1.10;;;4.80;99.90;;;;;;5023463;28;20737;-60
2023/11/27 10:26:00;;;;;;;2.57;1.43;;;4.70;99.90;;;;;;5028533;28;20221;-60
2023/11/27 10:28:41;;;;;;;4.00;0.70;;;4.90;99.90;;;;;;5029992;28;20201;-60
2023/11/27 10:31:08;;;;;;;2.67;1.00;;;5.00;99.90;;;;;;5026058;28;20204;-60
2023/11/27 10:33:35;;;;;;;2.40;1.03;;;5.00;99.90;;;;;;5030887;28;20219;-61
2023/11/27 10:36:03;;;;;;;0.80;0.80;;;5.10;99.90;;;;;;5030500;28;21128;-60
2023/11/27 10:38:31;;;;;;;0.60;0.60;;;5.10;99.90;;;;;;5030877;28;20208;-59
2023/11/27 10:41:03;;;;;;;2.20;0.80;;;5.00;99.90;;;;;;5027473;28;20204;-61
2023/11/27 10:43:35;;;;;;;1.73;0.90;;;5.10;99.90;;;;;;5013647;28;20212;-60
2023/11/27 10:46:07;;;;;;;0.30;0.30;;;5.20;99.90;;;;;;5025561;28;20701;-60
2023/11/27 10:48:35;;;;;;;0.97;0.40;;;5.30;99.90;;;;;;5030768;28;20216;-60
2023/11/27 10:51:04;;;;;;;2.10;0.50;;;5.30;99.90;;;;;;5031115;28;20681;-61
2023/11/27 10:53:32;;;;;;;0.70;0.50;;;5.40;99.90;;;;;;5030784;28;20219;-60
2023/11/27 10:56:03;;;;;;;1.70;0.60;;;5.60;99.90;;;;;;5030362;28;20227;-61
2023/11/27 10:58:30;;;;;;;0.53;0.53;;;5.70;99.90;;;;;;5020616;28;20205;-60
2023/11/27 11:00:58;;;;;;;1.80;0.80;;;5.80;99.90;;;;;;5018378;28;20209;-60
2023/11/27 11:03:32;;;;;;;1.33;0.50;;;6.00;99.90;;;;;;5021373;28;20192;-60
2023/11/27 11:06:01;;;;;;;1.73;0.40;;;6.10;99.90;;;;;;5020816;28;20232;-60
2023/11/27 11:08:30;;;;;;;0.40;0.40;;;6.10;99.90;;;;;;5025362;28;20211;-60
2023/11/27 11:11:01;;;;;;;0.70;0.60;;;6.10;99.90;;;;;;5016090;28;20260;-60
2023/11/27 11:13:30;;;;;;;2.57;0.40;;;6.10;99.90;;;;;;5028010;28;20235;-61
2023/11/27 11:16:07;;;;;;;0.40;0.33;;;6.00;99.90;;;;;;5029380;28;20257;-59
2023/11/27 11:18:43;;;;;;;0.70;0.70;;;5.90;99.90;;;;;;5030570;28;20209;-60
2023/11/27 11:21:47;;;;;;;5.50;1.03;;;5.90;99.90;;;;;;5033152;28;20672;-61
2023/11/27 11:24:23;;;;;;;0.43;0.43;;;5.80;99.90;;;;;;5022723;28;20279;-60
2023/11/27 11:27:07;;;;;;;1.60;0.50;;;5.80;99.90;;;;;;5022907;28;20260;-61
2023/11/27 11:29:35;;;;;;;0.50;0.50;;;5.90;99.90;;;;;;5024670;28;20205;-59
2023/11/27 11:32:04;;;;;;;3.80;0.70;;;5.80;99.90;;;;;;5021850;28;20209;-61
2023/11/27 11:34:37;;;;;;;1.80;0.50;;;5.90;99.90;;;;;;5023167;28;20198;-60
2023/11/27 11:37:04;;;;;;;2.77;0.60;;;6.00;99.90;;;;;;5021893;28;20310;-60
2023/11/27 11:39:32;;;;;;;0.40;0.40;;;6.10;99.90;;;;;;5020818;28;20287;-59
2023/11/27 11:42:03;;;;;;;1.80;0.70;;;6.00;99.90;;;;;;5026896;28;20214;-60
2023/11/27 11:44:33;;;;;;;2.37;1.00;;;6.00;99.90;;;;;;5022881;28;20204;-60
2023/11/27 11:47:00;;;;;;;1.93;1.00;;;6.00;99.90;;;;;;5029019;28;20213;-60
2023/11/27 11:49:29;;;;;;;1.33;0.70;;;6.00;99.90;;;;;;5023202;28;20209;-60
2023/11/27 11:52:07;;;;;;;3.30;0.97;;;6.20;99.90;;;;;;5023463;28;20290;-60
2023/11/27 11:54:38;;;;;;;1.37;0.90;;;6.10;99.90;;;;;;5021945;28;20579;-60
2023/11/27 11:57:17;;;;;;;1.43;0.50;;;6.10;99.90;;;;;;5022442;28;20250;-60
2023/11/27 11:59:49;;;;;;;1.40;0.47;;;6.20;99.90;;;;;;5022160;28;20677;-60
2023/11/27 12:02:20;;;;;;;0.83;0.70;;;6.10;99.90;;;;;;5022737;28;20622;-60
2023/11/27 12:04:51;;;;;;;0.70;0.60;;;6.10;99.90;;;;;;5020805;28;20264;-60
2023/11/27 12:07:19;;;;;;;1.10;0.60;;;6.10;99.90;;;;;;5021519;28;20207;-60
2023/11/27 12:09:48;;;;;;;1.00;0.60;;;6.10;99.90;;;;;;5022221;28;20616;-60
2023/11/27 12:12:16;;;;;;;1.33;0.77;;;6.10;99.90;;;;;;5022763;28;20229;-60
2023/11/27 12:14:45;;;;;;;0.67;0.67;;;6.10;99.90;;;;;;5021727;28;20198;-61
2023/11/27 12:17:15;;;;;;;0.77;0.77;;;6.30;99.90;;;;;;5022574;28;20200;-59
2023/11/27 12:19:43;;;;;;;0.73;0.47;;;6.50;99.90;;;;;;5023771;28;20213;-60
2023/11/27 12:22:12;;;;;;;4.40;0.53;;;6.70;99.90;;;;;;5020481;28;20298;-59
2023/11/27 12:24:44;;;;;;;2.17;0.47;;;6.60;99.90;;;;;;5020693;28;20202;-60
2023/11/27 12:27:11;;;;;;;2.00;0.90;;;6.70;99.90;;;;;;5022275;28;20204;-60
2023/11/27 12:29:40;;;;;;;2.57;1.03;;;6.80;99.90;;;;;;5021435;28;20215;-60
2023/11/27 12:32:08;;;;;;;1.00;1.00;;;6.80;99.90;;;;;;5021494;28;20208;-60
2023/11/27 12:34:40;;;;;;;3.13;0.90;;;6.60;99.90;;;;;;5022033;28;20200;-59
2023/11/27 12:37:08;;;;;;;1.47;0.60;;;6.60;99.90;;;;;;5021343;28;20213;-61
2023/11/27 12:39:37;;;;;;;1.73;0.80;;;6.60;99.90;;;;;;5022700;28;20200;-60
2023/11/27 12:42:12;;;;;;;2.17;1.10;;;6.50;99.90;;;;;;5021532;28;20864;-61
2023/11/27 12:44:48;;;;;;;1.53;0.87;;;6.50;99.90;;;;;;5022565;28;20606;-61
2023/11/27 12:47:19;;;;;;;0.93;0.77;;;6.40;99.90;;;;;;5021194;28;20245;-61
2023/11/27 12:49:51;;;;;;;4.47;0.70;;;6.40;99.90;;;;;;5021549;28;20815;-60
2023/11/27 12:52:18;;;;;;;1.73;0.65;;;6.40;99.90;;;;;;5019243;28;20464;-61
2023/11/27 12:54:54;;;;;;;0.50;0.50;;;6.40;99.90;;;;;;5018814;28;20759;-60
2023/11/27 12:57:22;;;;;;;0.70;0.70;;;6.30;99.90;;;;;;5018384;28;20248;-64
2023/11/27 12:59:50;;;;;;;1.57;0.60;;;6.20;99.90;;;;;;5020610;28;20561;-65
2023/11/27 13:02:21;;;;;;;0.50;0.50;;;6.30;99.90;;;;;;5020387;28;20201;-65